Time;durP1;ratioP1;P1;durP2;ratioP2;P2;SDS_P1;SDS_P2;PMS_P1;PMS_P2;Temp;Humidity;BMP_temperature;BMP_pressure;BME280_temperature;BME280_humidity;BME280_pressure;Samples;Min_cycle;Max_cycle;Signal;HPM_P1;HPM_P2
2022/09/03 00:02:34;;;;;;;;;7.50;6.75;;;;;23.73;52.38;100182.06;5057569;28;46456;-84
2022/09/03 00:05:04;;;;;;;;;7.25;6.25;;;;;23.67;51.69;100175.69;5055869;28;45565;-87
2022/09/03 00:07:54;;;;;;;;;7.00;6.00;;;;;23.70;51.56;100174.44;5037777;28;45930;-85
2022/09/03 00:10:56;;;;;;;;;7.00;6.25;;;;;23.69;51.91;100188.88;5055965;28;45557;-86
2022/09/03 00:13:57;;;;;;;;;6.00;5.25;;;;;23.69;52.17;100183.53;4995542;28;45598;-86
2022/09/03 00:16:27;;;;;;;;;7.00;5.25;;;;;23.63;52.54;100174.47;4993050;28;45759;-84
2022/09/03 00:19:00;;;;;;;;;5.25;5.25;;;;;23.63;51.99;100170.97;5011165;28;45723;-87
2022/09/03 00:21:33;;;;;;;;;5.00;5.00;;;;;23.65;52.59;100175.06;5008850;28;45649;-84
2022/09/03 00:27:24;;;;;;;;;6.00;5.50;;;;;23.55;51.95;100169.28;4997276;28;46544;-84
2022/09/03 00:30:02;;;;;;;;;7.00;7.00;;;;;23.60;52.38;100174.84;4995219;28;45789;-86
2022/09/03 00:32:40;;;;;;;;;7.00;6.75;;;;;23.59;52.55;100173.19;4993494;28;45850;-85
2022/09/03 00:35:15;;;;;;;;;6.00;5.00;;;;;23.60;52.46;100171.34;4992910;28;46068;-84
2022/09/03 00:37:41;;;;;;;;;6.50;6.00;;;;;23.58;52.48;100171.56;4993845;28;45735;-84
2022/09/03 00:44:23;;;;;;;;;5.00;4.50;;;;;23.57;51.89;100164.56;4992693;28;45736;-86
2022/09/03 00:46:59;;;;;;;;;6.50;6.00;;;;;23.55;52.23;100174.63;4895449;29;46462;-85
2022/09/03 00:49:44;;;;;;;;;8.50;7.75;;;;;23.54;52.58;100166.81;4937465;28;45851;-85
2022/09/03 00:52:34;;;;;;;;;12.00;10.00;;;;;23.43;52.50;100155.66;4957485;28;45718;-80
2022/09/03 00:55:12;;;;;;;;;6.50;6.50;;;;;23.55;52.57;100179.16;4958175;28;45656;-80
2022/09/03 00:57:37;;;;;;;;;6.75;6.50;;;;;23.55;52.37;100180.00;4959134;28;46184;-81
2022/09/03 01:00:02;;;;;;;;;6.00;6.00;;;;;23.56;52.48;100188.84;4958760;28;45407;-82
2022/09/03 01:02:55;;;;;;;;;7.00;6.00;;;;;23.53;52.59;100182.06;4958158;28;45771;-82
2022/09/03 01:05:33;;;;;;;;;9.00;7.75;;;;;23.51;52.43;100184.09;4956385;28;46487;-84
2022/09/03 01:08:07;;;;;;;;;5.00;5.00;;;;;23.50;52.61;100189.66;4955609;28;46444;-83
2022/09/03 01:11:00;;;;;;;;;6.00;5.50;;;;;23.36;52.08;100170.06;4956000;28;45740;-84
2022/09/03 01:14:05;;;;;;;;;6.25;6.00;;;;;23.43;52.53;100178.91;4956259;28;46052;-83
2022/09/03 01:16:39;;;;;;;;;5.75;5.00;;;;;23.44;52.44;100184.06;4897975;29;46672;-83
2022/09/03 01:19:35;;;;;;;;;5.00;5.00;;;;;23.43;52.53;100182.41;4898212;29;46448;-82
2022/09/03 01:22:42;;;;;;;;;6.00;5.00;;;;;23.42;52.40;100183.44;4935065;28;46044;-81
2022/09/03 01:25:30;;;;;;;;;7.00;7.00;;;;;23.39;52.29;100178.50;4917238;28;45820;-81
2022/09/03 01:28:18;;;;;;;;;5.50;5.50;;;;;23.39;52.55;100178.50;4917184;28;46624;-82
2022/09/03 01:30:49;;;;;;;;;6.00;5.00;;;;;23.34;52.67;100183.63;4917572;28;45556;-82
2022/09/03 01:33:20;;;;;;;;;6.50;6.00;;;;;23.37;52.57;100182.41;4917547;28;45841;-81
2022/09/03 01:35:45;;;;;;;;;5.00;5.00;;;;;23.37;53.04;100179.72;4917942;28;45765;-82
2022/09/03 01:38:31;;;;;;;;;7.00;6.75;;;;;23.35;52.37;100185.28;4917575;28;46570;-84
2022/09/03 01:42:12;;;;;;;;;7.00;6.00;;;;;23.35;52.78;100179.09;4917121;28;46316;-84
2022/09/03 01:44:22;;;;;;;;;6.00;5.25;;;;;23.34;52.76;100182.78;4917353;28;45695;-82
2022/09/03 01:47:01;;;;;;;;;7.00;6.25;;;;;23.25;52.99;100170.66;4917233;28;45825;-83
2022/09/03 01:49:33;;;;;;;;;5.25;5.00;;;;;23.32;53.19;100184.88;4917063;28;48816;-83
2022/09/03 01:52:11;;;;;;;;;7.00;6.00;;;;;23.28;53.18;100179.06;4917343;28;46423;-84
2022/09/03 01:57:58;;;;;;;;;4.00;4.00;;;;;23.28;52.79;100184.44;4955840;28;45723;-84
2022/09/03 02:00:25;;;;;;;;;6.00;6.00;;;;;23.27;53.16;100180.09;4959545;28;46722;-86
2022/09/03 02:02:51;;;;;;;;;5.25;5.00;;;;;23.20;53.54;100173.09;5026235;28;47066;-82
2022/09/03 02:05:25;;;;;;;;;7.00;6.75;;;;;23.24;53.44;100185.03;5068654;28;45578;-83
2022/09/03 02:08:00;;;;;;;;;4.75;4.00;;;;;23.22;53.63;100181.72;5070235;28;45386;-82
2022/09/03 02:13:51;;;;;;;;;5.00;5.00;;;;;23.15;53.37;100178.22;5059428;28;46052;-80
2022/09/03 02:16:30;;;;;;;;;5.25;5.00;;;;;23.07;53.75;100167.69;5058379;28;45570;-81
2022/09/03 02:19:00;;;;;;;;;8.00;6.00;;;;;23.12;53.40;100178.63;5058585;28;45746;-82
2022/09/03 02:21:31;;;;;;;;;6.00;5.50;;;;;23.10;54.03;100176.16;5057490;28;45647;-82
2022/09/03 02:23:56;;;;;;;;;4.50;4.00;;;;;23.05;53.88;100175.91;5057703;28;45826;-83
2022/09/03 02:29:44;;;;;;;;;5.00;5.00;;;;;23.09;54.14;100176.34;5062454;28;45887;-81
2022/09/03 02:32:11;;;;;;;;;6.00;6.00;;;;;22.99;53.84;100164.22;5063746;28;45559;-86
2022/09/03 02:34:36;;;;;;;;;5.75;5.00;;;;;23.08;54.05;100178.19;5028324;28;46259;-83
2022/09/03 02:37:11;;;;;;;;;5.75;5.75;;;;;23.07;53.65;100179.22;5063446;28;45707;-83
2022/09/03 02:39:38;;;;;;;;;6.25;5.00;;;;;23.07;54.38;100179.22;5065183;28;45715;-82
2022/09/03 02:42:03;;;;;;;;;7.00;5.50;;;;;23.02;54.16;100179.81;5057419;28;45808;-81
2022/09/03 02:44:36;;;;;;;;;6.00;5.75;;;;;23.05;54.77;100186.59;5057583;28;45597;-80
2022/09/03 02:47:04;;;;;;;;;6.50;6.00;;;;;23.01;54.25;100188.03;5058797;28;45643;-81
2022/09/03 02:49:30;;;;;;;;;6.00;6.00;;;;;22.91;54.92;100182.25;5058347;28;45731;-83
2022/09/03 02:52:00;;;;;;;;;6.75;5.75;;;;;22.96;54.37;100193.16;5058256;28;45538;-85
2022/09/03 02:54:27;;;;;;;;;7.50;7.50;;;;;22.94;54.93;100184.53;5060399;28;46336;-83
2022/09/03 03:00:16;;;;;;;;;7.50;7.00;;;;;22.78;55.23;100163.50;5062107;28;45697;-83
2022/09/03 03:02:42;;;;;;;;;7.00;7.00;;;;;22.90;55.26;100191.28;5060148;28;45577;-82
2022/09/03 03:05:12;;;;;;;;;7.50;7.50;;;;;22.85;55.47;100169.69;5059836;28;45760;-82
2022/09/03 03:07:39;;;;;;;;;7.00;7.00;;;;;22.72;55.29;100159.78;5056453;28;45485;-86
2022/09/03 03:10:05;;;;;;;;;6.00;6.00;;;;;22.79;55.15;100165.94;5056272;28;45557;-83
2022/09/03 03:12:31;;;;;;;;;8.00;8.00;;;;;22.82;55.82;100173.59;5054386;28;45845;-81
2022/09/03 03:14:56;;;;;;;;;10.00;7.50;;;;;22.86;55.68;100184.69;5057271;28;45877;-83
2022/09/03 03:17:22;;;;;;;;;7.50;7.00;;;;;22.86;56.36;100184.69;5060647;28;45644;-80
2022/09/03 03:19:48;;;;;;;;;9.50;8.50;;;;;22.79;56.22;100179.31;5059997;28;45736;-85
2022/09/03 03:22:13;;;;;;;;;7.25;7.25;;;;;22.78;55.98;100182.19;5037508;28;49115;-86
2022/09/03 03:24:39;;;;;;;;;7.75;7.00;;;;;22.66;56.06;100165.88;5055903;28;45696;-84
2022/09/03 03:30:26;;;;;;;;;7.25;7.00;;;;;22.77;56.73;100185.88;5053455;28;45816;-83
2022/09/03 03:32:53;;;;;;;;;8.00;7.00;;;;;22.76;57.06;100186.91;5055335;28;46462;-84
2022/09/03 03:35:19;;;;;;;;;10.75;9.75;;;;;22.57;56.58;100159.03;5054781;28;45602;-82
2022/09/03 03:37:44;;;;;;;;;9.25;7.75;;;;;22.56;56.91;100152.88;5055108;28;45672;-82
2022/09/03 03:40:10;;;;;;;;;8.50;8.00;;;;;22.71;57.13;100182.16;5055403;28;45622;-82
2022/09/03 03:42:36;;;;;;;;;9.75;8.00;;;;;22.71;57.16;100183.97;5054939;28;46549;-85
2022/09/03 03:45:01;;;;;;;;;8.25;8.25;;;;;22.69;56.63;100178.00;5055285;28;46114;-83
2022/09/03 03:47:30;;;;;;;;;7.75;7.00;;;;;22.59;57.10;100159.66;5037407;28;45575;-84
2022/09/03 03:49:58;;;;;;;;;9.00;8.50;;;;;22.65;57.33;100174.91;5057237;28;45785;-84
2022/09/03 03:52:25;;;;;;;;;9.25;8.00;;;;;22.62;57.58;100185.16;5057288;28;46895;-84
2022/09/03 03:54:52;;;;;;;;;11.25;10.00;;;;;22.53;57.80;100173.81;5054516;28;45881;-84
2022/09/03 04:00:39;;;;;;;;;9.25;9.25;;;;;22.49;57.83;100165.38;5055468;28;45538;-84
2022/09/03 04:03:04;;;;;;;;;10.25;9.25;;;;;22.47;57.85;100169.25;5054977;28;46461;-83
2022/09/03 04:05:29;;;;;;;;;11.00;8.75;;;;;22.41;58.01;100162.84;5054653;28;46107;-85
2022/09/03 04:07:59;;;;;;;;;8.50;8.25;;;;;22.27;57.97;100137.09;5036644;28;45952;-83
2022/09/03 04:10:25;;;;;;;;;9.50;9.00;;;;;22.41;58.64;100168.19;5054588;28;45882;-83
2022/09/03 04:12:53;;;;;;;;;7.25;7.25;;;;;22.39;58.31;100170.25;5057790;28;45658;-83
2022/09/03 04:15:18;;;;;;;;;9.25;9.00;;;;;22.30;58.59;100155.38;5056848;28;45751;-82
2022/09/03 04:17:43;;;;;;;;;9.00;8.00;;;;;22.36;58.33;100167.13;5037127;28;45681;-79
2022/09/03 04:20:09;;;;;;;;;9.00;9.00;;;;;22.33;58.63;100170.19;5061077;28;45647;-84
2022/09/03 04:22:34;;;;;;;;;9.50;9.25;;;;;22.31;58.55;100173.06;5070727;28;46810;-83
2022/09/03 04:25:00;;;;;;;;;9.75;8.75;;;;;22.35;58.84;100173.50;5071142;28;45565;-86
2022/09/03 04:30:47;;;;;;;;;7.75;7.75;;;;;22.33;58.21;100175.53;5062264;28;45688;-86
2022/09/03 04:33:12;;;;;;;;;9.00;9.00;;;;;22.31;58.46;100170.38;5068009;28;45633;-86
2022/09/03 04:35:39;;;;;;;;;9.25;8.75;;;;;22.30;58.90;100176.75;5072498;28;45917;-87
2022/09/03 04:38:06;;;;;;;;;8.00;7.50;;;;;22.26;58.49;100170.16;5075325;28;45596;-85
2022/09/03 04:40:32;;;;;;;;;9.00;8.00;;;;;22.19;58.50;100158.59;5075430;28;45405;-86
2022/09/03 04:42:59;;;;;;;;;10.00;9.00;;;;;22.24;58.80;100172.19;5068642;28;46319;-86
2022/09/03 04:45:25;;;;;;;;;10.00;9.00;;;;;22.27;58.76;100174.47;5061124;28;46420;-86
2022/09/03 04:47:58;;;;;;;;;10.00;9.00;;;;;22.28;58.80;100172.63;5059908;28;45689;-85
2022/09/03 04:50:25;;;;;;;;;10.25;9.25;;;;;22.11;58.64;100151.59;5040583;28;45879;-86
2022/09/03 04:52:50;;;;;;;;;10.00;9.50;;;;;22.25;58.84;100178.34;5064134;28;46370;-83
2022/09/03 04:55:16;;;;;;;;;9.50;8.00;;;;;22.12;58.73;100165.75;5076954;28;45664;-83
2022/09/03 05:01:08;;;;;;;;;10.00;10.00;;;;;22.18;58.96;100170.31;5069159;28;45622;-85
2022/09/03 05:03:36;;;;;;;;;9.75;9.25;;;;;22.13;58.86;100167.41;5068110;28;45697;-85
2022/09/03 05:06:02;;;;;;;;;9.50;7.50;;;;;22.16;59.32;100172.34;5064378;28;46086;-83
2022/09/03 05:08:27;;;;;;;;;8.00;8.00;;;;;22.16;59.54;100180.34;5063748;28;45519;-85
2022/09/03 05:11:00;;;;;;;;;8.25;7.50;;;;;22.16;59.17;100181.19;5062055;28;45627;-84
2022/09/03 05:13:27;;;;;;;;;9.75;8.75;;;;;22.10;59.27;100173.13;5041062;28;48555;-85
2022/09/03 05:15:58;;;;;;;;;8.75;8.00;;;;;22.02;58.90;100159.94;5058868;28;45678;-85
2022/09/03 05:18:23;;;;;;;;;9.25;9.25;;;;;22.15;59.09;100184.03;5060478;28;45644;-84
2022/09/03 05:20:57;;;;;;;;;8.50;7.75;;;;;22.11;59.68;100175.59;5059360;28;45771;-86
2022/09/03 05:23:23;;;;;;;;;10.75;9.00;;;;;22.14;59.15;100180.53;5057826;28;46766;-82
2022/09/03 05:26:05;;;;;;;;;10.00;8.50;;;;;22.14;59.41;100183.22;5057686;28;46005;-83
2022/09/03 05:28:30;;;;;;;;;9.00;8.25;;;;;22.13;59.41;100181.53;5038868;28;45750;-82
2022/09/03 05:31:08;;;;;;;;;8.25;8.25;;;;;22.03;59.66;100169.56;5057449;28;45757;-82
2022/09/03 05:33:36;;;;;;;;;8.00;8.00;;;;;22.08;58.98;100178.63;5058142;28;46671;-83
2022/09/03 05:36:04;;;;;;;;;7.25;7.25;;;;;22.08;59.31;100191.97;5056723;28;46447;-83
2022/09/03 05:38:29;;;;;;;;;10.00;7.75;;;;;22.08;59.17;100178.63;5058257;28;45648;-83
2022/09/03 05:40:59;;;;;;;;;10.00;9.00;;;;;22.12;59.83;100185.25;5057313;28;45969;-81
2022/09/03 05:43:26;;;;;;;;;9.00;8.00;;;;;22.00;59.43;100175.31;5058039;28;46918;-83
2022/09/03 05:45:56;;;;;;;;;7.50;7.50;;;;;22.08;59.23;100183.16;5065252;28;45619;-82
2022/09/03 05:48:21;;;;;;;;;7.75;7.50;;;;;22.11;59.63;100188.13;5069069;28;45305;-82
2022/09/03 05:50:48;;;;;;;;;8.25;8.25;;;;;22.04;59.39;100184.56;5061735;28;45752;-84
2022/09/03 05:53:14;;;;;;;;;8.75;8.00;;;;;22.11;59.83;100198.78;5041792;28;47393;-83
2022/09/03 05:55:39;;;;;;;;;8.00;8.00;;;;;22.14;59.81;100203.72;5057674;28;45727;-83
2022/09/03 06:01:29;;;;;;;;;9.25;8.50;;;;;22.13;59.76;100212.78;5059348;28;45733;-83
2022/09/03 06:03:58;;;;;;;;;9.50;8.00;;;;;22.08;60.10;100216.00;5060140;28;45635;-85
2022/09/03 06:06:25;;;;;;;;;10.00;9.25;;;;;22.10;59.87;100229.97;5059527;28;46322;-85
2022/09/03 06:08:56;;;;;;;;;8.00;7.25;;;;;22.06;59.98;100231.41;5058156;28;45708;-85
2022/09/03 06:11:25;;;;;;;;;8.75;8.00;;;;;21.88;59.98;100200.81;5057115;28;45510;-82
2022/09/03 06:13:51;;;;;;;;;9.00;9.00;;;;;22.05;59.82;100236.91;5056763;28;46974;-84
2022/09/03 06:16:16;;;;;;;;;8.75;8.00;;;;;22.04;59.62;100238.75;5038177;28;46143;-82
2022/09/03 06:18:42;;;;;;;;;10.75;8.50;;;;;22.02;59.66;100229.31;5055983;28;45719;-85
2022/09/03 06:21:08;;;;;;;;;10.25;9.50;;;;;22.04;59.92;100235.25;5056138;28;45811;-83
2022/09/03 06:23:34;;;;;;;;;11.75;10.50;;;;;21.87;60.17;100208.00;5056148;28;46451;-83
2022/09/03 06:26:04;;;;;;;;;10.75;9.75;;;;;22.04;59.75;100241.44;5055559;28;46182;-82
2022/09/03 06:31:51;;;;;;;;;10.00;9.00;;;;;22.02;60.33;100242.66;5054029;28;45804;-82
2022/09/03 06:34:17;;;;;;;;;12.25;11.25;;;;;22.01;60.18;100246.34;5056323;28;46350;-83
2022/09/03 06:36:43;;;;;;;;;14.25;12.00;;;;;21.85;60.18;100223.38;5046415;28;47486;-83
2022/09/03 06:39:08;;;;;;;;;10.25;9.50;;;;;21.87;59.97;100231.16;5072798;28;45594;-85
2022/09/03 06:41:34;;;;;;;;;10.75;9.50;;;;;21.81;60.29;100231.97;5073464;28;45660;-85
2022/09/03 06:44:05;;;;;;;;;11.75;10.25;;;;;21.95;59.84;100250.59;5045879;28;47651;-85
2022/09/03 06:46:33;;;;;;;;;11.25;10.25;;;;;21.90;60.37;100246.81;5063408;28;45534;-85
2022/09/03 06:48:59;;;;;;;;;14.75;13.50;;;;;21.92;60.16;100258.94;5066448;28;45396;-85
2022/09/03 06:51:26;;;;;;;;;13.25;12.50;;;;;21.89;60.19;100251.31;5061608;28;45579;-85
2022/09/03 06:54:03;;;;;;;;;13.25;12.25;;;;;21.88;60.74;100252.31;5056992;28;45573;-85
2022/09/03 06:56:28;;;;;;;;;11.00;11.00;;;;;21.85;60.63;100255.38;5055806;28;46318;-85
2022/09/03 06:58:59;;;;;;;;;14.00;12.25;;;;;21.64;60.51;100229.53;5056233;28;45676;-85
2022/09/03 07:01:30;;;;;;;;;10.25;8.00;;;;;21.75;60.74;100247.69;5037456;28;46026;-84
2022/09/03 07:03:59;;;;;;;;;11.50;10.25;;;;;21.73;60.39;100248.91;5055037;28;49113;-84
2022/09/03 07:06:28;;;;;;;;;13.25;12.75;;;;;21.69;60.66;100235.13;5055119;28;45910;-83
2022/09/03 07:08:56;;;;;;;;;10.00;7.25;;;;;21.73;60.62;100244.41;5055581;28;46012;-85
2022/09/03 07:11:26;;;;;;;;;10.75;10.50;;;;;21.71;60.41;100246.41;5054964;28;45883;-82
2022/09/03 07:17:13;;;;;;;;;11.25;10.50;;;;;21.67;60.60;100228.31;5059332;28;45665;-86
2022/09/03 07:19:38;;;;;;;;;10.25;9.00;;;;;21.73;60.23;100247.06;5056964;28;45496;-82
2022/09/03 07:22:03;;;;;;;;;10.00;9.25;;;;;21.64;60.41;100228.72;5059288;28;45569;-83
2022/09/03 07:24:29;;;;;;;;;26.50;25.75;;;;;21.75;60.53;100247.69;5063429;28;45524;-81
2022/09/03 07:26:56;;;;;;;;;9.00;8.00;;;;;21.50;60.85;100208.25;5060677;28;45566;-85
2022/09/03 07:29:22;;;;;;;;;9.75;8.00;;;;;21.68;60.42;100240.66;5055486;28;45691;-83
2022/09/03 07:31:50;;;;;;;;;10.25;9.75;;;;;21.71;60.45;100251.75;5055024;28;45713;-84
2022/09/03 07:34:15;;;;;;;;;11.00;9.75;;;;;21.71;60.49;100242.91;5053585;28;46585;-85
2022/09/03 07:36:45;;;;;;;;;8.75;8.25;;;;;21.78;60.39;100249.97;5054929;28;45590;-85
2022/09/03 07:39:14;;;;;;;;;8.00;7.25;;;;;21.86;60.40;100261.56;5054924;28;45681;-85
2022/09/03 07:41:42;;;;;;;;;10.00;9.25;;;;;21.66;60.48;100232.81;5055409;28;45663;-85
2022/09/03 07:47:31;;;;;;;;;8.50;8.00;;;;;21.94;60.41;100277.41;5055712;28;46001;-84
2022/09/03 07:49:56;;;;;;;;;9.00;9.00;;;;;21.97;60.49;100275.22;5036743;28;46013;-82
2022/09/03 07:52:21;;;;;;;;;8.50;7.50;;;;;22.00;60.12;100280.19;5055539;28;45633;-84
2022/09/03 07:54:47;;;;;;;;;7.50;7.50;;;;;22.03;60.07;100278.97;5054727;28;45605;-83
2022/09/03 07:57:13;;;;;;;;;34.75;31.00;;;;;22.06;59.91;100276.75;5054274;28;45725;-81
2022/09/03 07:59:39;;;;;;;;;8.25;7.75;;;;;22.04;59.75;100262.78;5054093;28;45673;-80
2022/09/03 08:02:05;;;;;;;;;8.00;7.50;;;;;22.10;59.89;100259.34;5054830;28;45566;-85
2022/09/03 08:04:32;;;;;;;;;7.00;7.00;;;;;22.23;59.84;100276.50;5036514;28;47681;-82
2022/09/03 08:06:58;;;;;;;;;6.50;6.50;;;;;22.10;59.57;100251.34;5070203;28;46098;-87
2022/09/03 08:09:24;;;;;;;;;7.25;7.00;;;;;22.32;60.14;100280.66;5055127;28;45796;-81
2022/09/03 08:11:50;;;;;;;;;8.00;6.25;;;;;22.36;59.97;100276.56;5055163;28;45618;-82
2022/09/03 08:17:36;;;;;;;;;9.00;8.50;;;;;22.44;59.59;100292.47;5054103;28;45713;-84
2022/09/03 08:20:03;;;;;;;;;16.25;11.00;;;;;22.49;58.86;100290.88;5054728;28;45968;-81
2022/09/03 08:22:28;;;;;;;;;5.25;5.25;;;;;22.58;59.17;100291.53;5054795;28;45799;-85
2022/09/03 08:24:54;;;;;;;;;6.50;6.50;;;;;22.49;58.96;100269.50;5054231;28;45613;-84
2022/09/03 08:27:24;;;;;;;;;7.75;7.00;;;;;22.49;58.92;100280.19;5036100;28;47090;-85
2022/09/03 08:29:49;;;;;;;;;7.00;6.00;;;;;22.63;58.38;100283.78;5054998;28;45715;-83
2022/09/03 08:32:15;;;;;;;;;9.75;8.00;;;;;22.79;58.27;100299.53;5036205;28;46010;-83
2022/09/03 08:34:40;;;;;;;;;5.75;5.00;;;;;22.81;58.50;100302.00;5055070;28;46733;-81
2022/09/03 08:37:08;;;;;;;;;7.00;6.00;;;;;22.71;58.17;100283.66;5054776;28;45664;-83
2022/09/03 08:39:34;;;;;;;;;6.75;6.75;;;;;22.98;58.39;100316.72;5054865;28;45656;-82
2022/09/03 08:48:35;;;;;;;;;3.00;2.50;;;;;23.20;57.71;100320.97;5054988;28;45760;-82
2022/09/03 08:51:03;;;;;;;;;7.75;7.00;;;;;23.21;57.55;100308.41;5056420;28;45713;-83
2022/09/03 08:53:37;;;;;;;;;7.00;6.00;;;;;23.36;57.35;100325.16;5047372;28;45605;-84
2022/09/03 08:56:09;;;;;;;;;5.25;5.00;;;;;23.40;57.79;100321.88;5069051;28;45970;-83
2022/09/03 08:58:42;;;;;;;;;4.00;3.00;;;;;23.40;56.74;100319.19;5067669;28;45716;-85
2022/09/03 09:01:08;;;;;;;;;5.00;4.25;;;;;23.55;56.55;100329.78;5062063;28;45878;-84
2022/09/03 09:03:55;;;;;;;;;4.50;4.25;;;;;23.62;56.27;100327.13;5057082;28;45537;-86
2022/09/03 09:06:43;;;;;;;;;5.00;3.25;;;;;23.68;56.43;100327.16;5056164;28;46346;-85
2022/09/03 09:09:37;;;;;;;;;5.50;4.00;;;;;23.73;56.55;100327.38;5036299;28;46143;-84
2022/09/03 09:15:33;;;;;;;;;5.00;4.25;;;;;23.85;55.90;100332.97;5058168;28;45680;-84
2022/09/03 09:18:08;;;;;;;;;3.25;3.00;;;;;23.92;56.02;100331.13;5057422;28;46745;-84
2022/09/03 09:20:55;;;;;;;;;5.00;5.00;;;;;23.80;55.55;100306.81;5059991;28;46011;-83
2022/09/03 09:23:28;;;;;;;;;5.50;4.25;;;;;23.90;55.84;100298.41;5060619;28;45904;-84
2022/09/03 09:25:58;;;;;;;;;6.00;6.00;;;;;24.17;55.42;100334.94;5060050;28;45364;-81
2022/09/03 09:31:45;;;;;;;;;4.00;3.00;;;;;24.07;54.73;100283.59;5057288;28;45894;-84
2022/09/03 09:34:10;;;;;;;;;3.75;3.75;;;;;24.39;55.11;100327.53;5057321;28;45495;-85
2022/09/03 09:36:53;;;;;;;;;5.00;5.00;;;;;24.46;54.44;100332.88;5038865;28;45566;-84
2022/09/03 09:39:20;;;;;;;;;4.75;4.25;;;;;24.46;54.62;100338.22;5058697;28;45659;-82
2022/09/03 09:42:08;;;;;;;;;4.00;4.00;;;;;24.52;54.82;100334.72;5057096;28;46683;-83
2022/09/03 09:47:56;;;;;;;;;5.00;5.00;;;;;24.50;54.36;100337.63;5057304;28;45894;-82
2022/09/03 09:50:22;;;;;;;;;6.00;6.00;;;;;24.46;54.47;100330.19;5056473;28;46918;-83
2022/09/03 09:52:47;;;;;;;;;5.00;5.00;;;;;24.48;54.45;100334.31;5056911;28;45883;-82
2022/09/03 09:55:18;;;;;;;;;4.00;4.00;;;;;24.52;54.35;100340.09;5057164;28;45660;-82
2022/09/03 09:57:45;;;;;;;;;4.00;3.00;;;;;24.51;54.72;100341.94;5042233;28;45845;-83
2022/09/03 10:00:14;;;;;;;;;5.25;5.00;;;;;24.50;54.00;100352.88;5059491;28;45632;-86
2022/09/03 10:02:50;;;;;;;;;6.00;5.25;;;;;24.47;54.64;100346.06;5059720;28;45620;-85
2022/09/03 10:05:32;;;;;;;;;6.25;5.25;;;;;24.33;54.37;100319.47;5058238;28;45723;-85
2022/09/03 10:08:04;;;;;;;;;4.25;4.00;;;;;24.54;54.21;100351.44;5060227;28;45626;-85
2022/09/03 10:10:36;;;;;;;;;3.00;3.00;;;;;24.57;54.05;100353.69;5061863;28;46898;-82
2022/09/03 10:13:04;;;;;;;;;4.00;4.00;;;;;24.59;54.12;100347.09;5061876;28;45883;-83
2022/09/03 10:15:38;;;;;;;;;4.00;4.00;;;;;24.58;53.37;100349.97;5060164;28;45654;-83
2022/09/03 10:18:27;;;;;;;;;5.00;5.00;;;;;24.61;53.65;100361.13;5039407;28;45650;-83
2022/09/03 10:21:13;;;;;;;;;4.25;4.00;;;;;24.62;53.28;100351.19;5056596;28;45788;-82
2022/09/03 10:23:57;;;;;;;;;4.00;3.00;;;;;24.62;53.47;100360.06;5055511;28;46131;-83
2022/09/03 10:26:29;;;;;;;;;5.25;5.25;;;;;24.50;53.50;100337.63;5020837;28;45725;-83
2022/09/03 10:29:06;;;;;;;;;4.50;4.25;;;;;24.49;53.28;100341.34;5056268;28;45747;-84
2022/09/03 10:32:01;;;;;;;;;5.00;5.00;;;;;24.62;53.31;100372.63;5055429;28;46727;-82
2022/09/03 10:34:50;;;;;;;;;5.50;5.50;;;;;24.63;53.62;100374.28;5055530;28;46187;-81
2022/09/03 10:37:31;;;;;;;;;5.00;5.00;;;;;24.56;53.21;100365.44;5055643;28;45704;-82
2022/09/03 10:40:12;;;;;;;;;6.00;5.00;;;;;24.63;52.84;100379.66;5055334;28;45678;-82
2022/09/03 10:42:54;;;;;;;;;4.00;4.00;;;;;24.64;53.21;100375.94;5055573;28;45506;-83
2022/09/03 10:45:36;;;;;;;;;4.25;3.50;;;;;24.65;53.09;100374.94;5055315;28;46401;-83
2022/09/03 10:48:05;;;;;;;;;5.50;5.00;;;;;24.70;53.11;100383.16;5055306;28;45724;-82
2022/09/03 10:51:03;;;;;;;;;4.25;4.00;;;;;24.71;53.17;100370.59;5055868;28;45730;-86
2022/09/03 10:53:48;;;;;;;;;3.50;3.50;;;;;24.75;52.65;100374.50;5056068;28;46221;-83
2022/09/03 10:56:26;;;;;;;;;3.75;3.75;;;;;24.74;52.50;100376.34;5058007;28;45957;-83
2022/09/03 11:02:28;;;;;;;;;4.50;4.25;;;;;24.71;52.47;100354.53;5055910;28;45520;-81
2022/09/03 11:05:01;;;;;;;;;5.75;5.00;;;;;24.80;52.40;100366.66;5038328;28;48260;-84
2022/09/03 11:07:43;;;;;;;;;4.75;4.00;;;;;24.78;52.29;100358.03;5056442;28;46992;-82
2022/09/03 11:10:18;;;;;;;;;4.25;4.00;;;;;24.78;52.69;100355.34;5058663;28;45618;-81
2022/09/03 11:13:07;;;;;;;;;6.00;6.00;;;;;24.77;52.20;100362.56;5060030;28;45855;-82
2022/09/03 11:19:05;;;;;;;;;4.25;4.25;;;;;24.79;52.20;100355.13;4998983;28;46088;-84
2022/09/03 11:21:33;;;;;;;;;4.00;4.00;;;;;24.83;52.00;100359.03;4994951;28;45615;-84
2022/09/03 11:24:16;;;;;;;;;6.75;5.75;;;;;24.87;52.08;100365.63;4976403;28;46078;-83
2022/09/03 11:26:51;;;;;;;;;5.00;4.00;;;;;24.65;51.12;100324.84;4977939;28;46655;-82
2022/09/03 11:29:36;;;;;;;;;5.00;4.00;;;;;24.86;51.12;100344.41;4995628;28;46154;-81
2022/09/03 11:32:06;;;;;;;;;5.00;3.50;;;;;24.97;50.94;100357.19;4978858;28;45819;-83
2022/09/03 11:34:53;;;;;;;;;5.00;4.00;;;;;25.02;50.98;100357.41;4995450;28;45623;-80
2022/09/03 11:37:27;;;;;;;;;4.00;3.00;;;;;25.07;50.68;100362.94;4994481;28;45931;-83
2022/09/03 11:40:28;;;;;;;;;4.00;3.00;;;;;25.12;50.35;100365.00;4993169;28;46043;-83
2022/09/03 11:43:12;;;;;;;;;3.25;3.00;;;;;25.11;49.83;100366.84;4993466;28;45897;-83
2022/09/03 11:45:38;;;;;;;;;3.50;2.75;;;;;24.99;50.19;100350.56;4992839;28;45849;-81
2022/09/03 11:48:37;;;;;;;;;4.25;4.00;;;;;25.03;50.40;100357.19;4992830;28;45623;-85
2022/09/03 11:51:03;;;;;;;;;3.75;3.25;;;;;25.05;50.51;100357.78;4976303;28;47253;-81
2022/09/03 11:53:35;;;;;;;;;4.75;4.00;;;;;25.03;50.24;100338.44;5046596;28;45714;-83
2022/09/03 11:56:03;;;;;;;;;3.25;3.00;;;;;25.21;50.29;100358.41;5036536;28;45702;-82
2022/09/03 12:01:39;;;;;;;;;2.75;2.75;;;;;25.25;49.70;100363.13;5054470;28;45865;-83
2022/09/03 12:04:06;;;;;;;;;3.00;3.00;;;;;25.16;49.90;100347.44;5054439;28;45618;-82
2022/09/03 12:06:56;;;;;;;;;2.00;2.00;;;;;25.31;49.39;100372.19;5036342;28;45637;-84
2022/09/03 12:09:51;;;;;;;;;0.25;0.25;;;;;25.35;49.15;100368.03;5055205;28;45729;-85
2022/09/03 12:12:47;;;;;;;;;1.00;1.00;;;;;25.31;48.83;100359.59;5058528;28;46239;-83
2022/09/03 12:18:35;;;;;;;;;1.25;1.25;;;;;25.36;48.63;100354.44;5056449;28;45555;-86
2022/09/03 12:21:04;;;;;;;;;2.50;2.50;;;;;25.41;48.76;100368.03;5040077;28;47834;-84
2022/09/03 12:23:40;;;;;;;;;1.50;1.50;;;;;25.36;49.11;100362.47;5058816;28;46627;-85
2022/09/03 12:26:15;;;;;;;;;1.25;1.00;;;;;25.28;49.33;100365.38;5057303;28;45771;-86
2022/09/03 12:33:14;;;;;;;;;1.00;1.00;;;;;25.16;50.11;100372.41;4989685;28;46124;-86
2022/09/03 12:35:39;;;;;;;;;0.50;0.50;;;;;25.20;50.09;100380.88;4973289;28;46134;-87
2022/09/03 12:38:05;;;;;;;;;0.00;0.00;;;;;25.22;50.08;100376.94;4973395;28;45694;-85
2022/09/03 12:40:31;;;;;;;;;1.00;1.00;;;;;25.24;49.99;100382.94;4974038;28;45541;-82
2022/09/03 12:43:14;;;;;;;;;0.00;0.00;;;;;25.27;50.02;100390.53;4973619;28;46447;-83
2022/09/03 12:49:04;;;;;;;;;1.00;1.00;;;;;25.29;49.95;100376.94;4978815;28;45792;-87
2022/09/03 12:51:38;;;;;;;;;2.00;1.00;;;;;25.07;50.10;100342.34;4977280;28;45926;-83
2022/09/03 12:54:08;;;;;;;;;1.00;1.00;;;;;25.30;50.54;100383.94;4976867;28;46273;-86
2022/09/03 12:56:35;;;;;;;;;0.75;0.50;;;;;25.14;50.37;100350.38;4976958;28;45766;-85
2022/09/03 12:59:10;;;;;;;;;1.00;1.00;;;;;25.12;50.83;100375.72;4977068;28;45769;-87
2022/09/03 13:01:47;;;;;;;;;1.00;1.00;;;;;25.18;51.06;100380.25;4976576;28;45661;-83
2022/09/03 13:04:18;;;;;;;;;1.00;1.00;;;;;25.19;51.16;100382.75;4976879;28;45679;-84
2022/09/03 13:06:52;;;;;;;;;1.00;1.00;;;;;25.21;51.19;100385.22;4962348;28;47293;-86
2022/09/03 13:09:25;;;;;;;;;1.00;1.00;;;;;25.23;51.23;100389.31;5032104;28;45600;-85
2022/09/03 13:11:54;;;;;;;;;0.00;0.00;;;;;25.15;50.78;100384.19;5041577;28;45634;-86
2022/09/03 13:14:20;;;;;;;;;0.00;0.00;;;;;25.19;50.90;100384.59;5043344;28;46426;-83
2022/09/03 13:16:45;;;;;;;;;1.00;1.00;;;;;25.21;50.35;100382.53;5025247;28;47390;-83